Turners Falls, MA (01349)

5:48 AM EDT on November 01, 2014 (GMT -0400)
Montague Center Weatherbot | Change Station
CLOSE
Current Station
Personal Weather Station
Location: Montague, MA
Elevation: 454 ft
Nearby Weather Stations

Elev 454 ft 42.53 °N, 72.55 °W | Updated 11 minutes ago

Overcast
Overcast
41.6 °F
Feels Like 42 °F
N
2.0
Wind Variable Wind from NNW
Gusts 4.0 mph

Today
High -- | Low -- °F
--% Chance of Precip.
Yesterday
High -- | Low -- °F
Precip. -- in
7:23 AM 5:42 PM
Waxing Gibbous, 65% visible
Pressure 29.94 in
Visibility 10.0 miles
Clouds Overcast 7500 ft
Windchill 42 °F
Dew Point 36 °F
Humidity 79%
Rainfall 0.00 in
Snow Depth Not available.
UV 0 out of 12
Pollen .20 out of 12
Air Quality Not available.
Flu Activity Not available.
METAR KORE 010852Z AUTO 01008KT 10SM OVC075 05/M01 A2992 RMK AO2 SLP136 T00501006 58008

More Conditions Fewer Conditions

Pressure 29.94 in
Visibility 10.0 miles
Clouds Overcast 7500 ft
Windchill 42 °F
Dew Point 36 °F
Humidity 79%
Rainfall 0.00 in
Snow Depth Not available.
UV 0 out of 12
Pollen .20 out of 12
Air Quality Not available.
Flu Activity Not available.
METAR KORE 010852Z AUTO 01008KT 10SM OVC075 05/M01 A2992 RMK AO2 SLP136 T00501006 58008

More Conditions Fewer Conditions

10-Day Weather Forecast

Almanac

Astronomy

Nov. 01, 2014 Rise Set
Actual Time
Civil Twilight
Nautical Twilight
Astronomical Twilight
Moon
Length of Visible Light
Length of Day
Tomorrow will be .
, % of the Moon is Illuminated

Today's Extremes

State Highs State Lows

Community

WunderPhotos

Upload Photos

1,766,872 photos uploaded!

WunderBlogs® & News

Nearby

Air Quality

  Air Quality AQ Index Pollutant
Not available.

Snow Depth

Station Depth Elevation

Earthquake Activity

City Distance Mag. Time & Date
Minimum magnitude displayed is 2.5.

Coastal Water Temperatures

Place Temperature

Nearby Weather Stations